createdAt,value
2022-09-28T00:01:26.143Z,99245.34
2022-09-28T00:03:57.530Z,99242.66
2022-09-28T00:06:28.224Z,99247.91
2022-09-28T00:08:57.245Z,99254.84
2022-09-28T00:11:28.483Z,99254.84
2022-09-28T00:14:03.349Z,99244.69
2022-09-28T00:16:34.748Z,99252.63
2022-09-28T00:19:04.000Z,99243.38
2022-09-28T00:21:35.601Z,99241.25
2022-09-28T00:24:19.964Z,99249.94
2022-09-28T00:26:54.875Z,99236.34
2022-09-28T00:29:24.681Z,99240.88
2022-09-28T00:31:59.700Z,99238.06
2022-09-28T00:34:31.148Z,99234.28
2022-09-28T00:36:59.832Z,99234.16
2022-09-28T00:39:28.460Z,99233.03
2022-09-28T00:41:58.635Z,99232.91
2022-09-28T00:44:51.601Z,99232.78
2022-09-28T00:47:49.863Z,99241.72
2022-09-28T00:50:27.218Z,99230.81
2022-09-28T00:53:01.996Z,99231.56
2022-09-28T00:55:38.423Z,99239.50
2022-09-28T00:58:12.591Z,99232.28
2022-09-28T01:00:42.184Z,99233.00
2022-09-28T01:03:11.137Z,99225.78
2022-09-28T01:05:41.673Z,99224.81
2022-09-28T01:08:11.673Z,99225.66
2022-09-28T01:10:43.509Z,99225.66
2022-09-28T01:13:13.915Z,99229.06
2022-09-28T01:15:54.662Z,99225.28
2022-09-28T01:18:35.148Z,99226.97
2022-09-28T01:21:07.430Z,99226.03
2022-09-28T01:24:14.129Z,99228.81
2022-09-28T01:27:06.305Z,99227.09
2022-09-28T01:30:01.332Z,99222.59
2022-09-28T01:32:39.302Z,99226.88
2022-09-28T01:35:12.328Z,99228.44
2022-09-28T01:37:51.970Z,99229.03
2022-09-28T01:40:22.930Z,99224.38
2022-09-28T01:42:58.361Z,99221.81
2022-09-28T01:45:33.227Z,99231.59
2022-09-28T01:48:05.949Z,99228.91
2022-09-28T01:50:40.648Z,99226.34
2022-09-28T01:53:15.610Z,99226.47
2022-09-28T01:55:48.314Z,99224.78
2022-09-28T01:58:25.381Z,99225.75
2022-09-28T02:01:01.180Z,99224.19
2022-09-28T02:03:37.808Z,99221.59
2022-09-28T02:06:14.459Z,99220.66
2022-09-28T02:08:50.386Z,99223.34
2022-09-28T02:11:23.347Z,99223.19
2022-09-28T02:13:59.899Z,99222.34
2022-09-28T02:16:37.538Z,99216.97
2022-09-28T02:19:06.568Z,99220.66
2022-09-28T02:21:43.233Z,99213.66
2022-09-28T02:24:21.728Z,99223.69
2022-09-28T02:26:53.039Z,99217.47
2022-09-28T02:29:22.565Z,99222.97
2022-09-28T02:31:52.725Z,99223.81
2022-09-28T02:34:21.082Z,99214.06
2022-09-28T02:36:49.523Z,99217.59
2022-09-28T02:39:19.073Z,99213.91
2022-09-28T02:41:59.748Z,99222.00
2022-09-28T02:44:51.682Z,99218.44
2022-09-28T02:47:39.040Z,99221.13
2022-09-28T02:50:22.770Z,99224.69
2022-09-28T02:53:26.162Z,99223.69
2022-09-28T02:56:12.616Z,99222.84
2022-09-28T02:58:54.974Z,99224.69
2022-09-28T03:01:32.553Z,99223.81
2022-09-28T03:04:12.348Z,99222.00
2022-09-28T03:06:48.363Z,99217.47
2022-09-28T03:09:22.552Z,99222.84
2022-09-28T03:11:56.041Z,99223.69
2022-09-28T03:14:24.536Z,99221.00
2022-09-28T03:16:54.099Z,99221.84
2022-09-28T03:19:29.197Z,99225.41
2022-09-28T03:21:57.352Z,99219.16
2022-09-28T03:24:25.548Z,99220.16
2022-09-28T03:26:53.718Z,99217.34
2022-09-28T03:29:21.998Z,99212.09
2022-09-28T03:31:50.191Z,99219.16
2022-09-28T03:34:19.727Z,99210.25
2022-09-28T03:36:47.915Z,99223.69
2022-09-28T03:39:16.131Z,99210.97
2022-09-28T03:41:44.324Z,99213.66
2022-09-28T03:44:12.845Z,99207.28
2022-09-28T03:46:41.106Z,99216.34
2022-09-28T03:49:10.553Z,99213.66
2022-09-28T03:51:40.160Z,99212.66
2022-09-28T03:54:08.346Z,99207.28
2022-09-28T03:56:36.529Z,99210.13
2022-09-28T03:59:05.305Z,99203.88
2022-09-28T04:01:33.615Z,99210.25
2022-09-28T04:04:02.357Z,99207.56
2022-09-28T04:06:30.533Z,99214.78
2022-09-28T04:09:00.431Z,99212.22
2022-09-28T04:11:42.851Z,99209.53
2022-09-28T04:14:16.752Z,99208.81
2022-09-28T04:16:45.458Z,99203.44
2022-09-28T04:19:14.178Z,99200.75
2022-09-28T04:21:42.496Z,99206.13
2022-09-28T04:24:12.718Z,99200.75
2022-09-28T04:26:40.930Z,99198.19
2022-09-28T04:29:18.929Z,99197.31
2022-09-28T04:31:49.837Z,99202.22
2022-09-28T04:34:20.606Z,99201.50
2022-09-28T04:36:50.098Z,99198.94
2022-09-28T04:39:20.094Z,99207.13
2022-09-28T04:41:49.910Z,99203.72
2022-09-28T04:44:18.165Z,99204.84
2022-09-28T04:46:46.344Z,99212.28
2022-09-28T04:49:14.871Z,99200.22
2022-09-28T04:51:43.180Z,99212.09
2022-09-28T04:54:11.368Z,99200.56
2022-09-28T04:56:41.811Z,99201.44
2022-09-28T04:59:10.006Z,99202.41
2022-09-28T05:01:38.340Z,99197.03
2022-09-28T05:04:06.519Z,99205.94
2022-09-28T05:06:34.692Z,99201.31
2022-09-28T05:09:02.923Z,99198.63
2022-09-28T05:11:31.086Z,99205.00
2022-09-28T05:14:00.811Z,99198.75
2022-09-28T05:16:30.944Z,99201.69
2022-09-28T05:18:59.208Z,99201.81
2022-09-28T05:21:27.978Z,99204.50
2022-09-28T05:23:56.719Z,99199.13
2022-09-28T05:26:25.426Z,99204.50
2022-09-28T05:28:53.792Z,99203.53
2022-09-28T05:31:23.339Z,99200.97
2022-09-28T05:33:52.006Z,99210.00
2022-09-28T05:36:20.756Z,99202.94
2022-09-28T05:38:48.950Z,99207.44
2022-09-28T05:41:17.112Z,99203.78
2022-09-28T05:43:45.712Z,99199.38
2022-09-28T05:46:14.561Z,99196.69
2022-09-28T05:48:44.239Z,99190.47
2022-09-28T05:51:12.401Z,99195.13
2022-09-28T05:53:40.545Z,99185.44
2022-09-28T05:56:08.804Z,99197.19
2022-09-28T05:58:36.987Z,99196.34
2022-09-28T06:01:05.233Z,99196.34
2022-09-28T06:03:33.429Z,99198.88
2022-09-28T06:06:03.404Z,99201.59
2022-09-28T06:08:33.304Z,99202.47
2022-09-28T06:11:02.174Z,99195.97
2022-09-28T06:13:32.079Z,99199.50
2022-09-28T06:16:00.262Z,99210.13
2022-09-28T06:18:28.443Z,99209.88
2022-09-28T06:20:57.057Z,99208.91
2022-09-28T06:23:26.712Z,99215.13
2022-09-28T06:25:54.872Z,99205.22
2022-09-28T06:28:23.081Z,99214.28
2022-09-28T06:30:51.306Z,99211.59
2022-09-28T06:33:19.587Z,99211.59
2022-09-28T06:35:47.985Z,99216.84
2022-09-28T06:38:16.185Z,99219.38
2022-09-28T06:40:45.993Z,99214.78
2022-09-28T06:43:15.787Z,99220.88
2022-09-28T06:45:44.942Z,99221.72
2022-09-28T06:48:13.795Z,99226.25
2022-09-28T06:50:43.354Z,99221.13
2022-09-28T06:53:14.647Z,99225.53
2022-09-28T06:55:48.365Z,99229.28
2022-09-28T06:58:19.595Z,99231.13
2022-09-28T07:00:49.704Z,99233.94
2022-09-28T07:03:20.782Z,99228.44
2022-09-28T07:05:52.652Z,99239.19
2022-09-28T07:08:24.335Z,99240.91
2022-09-28T07:10:56.309Z,99242.63
2022-09-28T07:13:50.555Z,99238.84
2022-09-28T07:16:16.234Z,99246.66
2022-09-28T07:18:44.469Z,99255.19
2022-09-28T07:21:23.680Z,99255.81
2022-09-28T07:23:55.166Z,99255.53
2022-09-28T07:26:25.638Z,99262.50
2022-09-28T07:28:55.909Z,99260.53
2022-09-28T07:31:26.197Z,99272.88
2022-09-28T07:33:55.345Z,99273.72
2022-09-28T07:36:23.731Z,99275.69
2022-09-28T07:38:51.982Z,99278.25
2022-09-28T07:41:32.101Z,99281.69
2022-09-28T07:44:06.272Z,99268.84
2022-09-28T07:46:35.358Z,99272.13
2022-09-28T07:49:08.321Z,99274.44
2022-09-28T07:51:39.791Z,99274.06
2022-09-28T07:54:08.063Z,99279.91
2022-09-28T07:56:36.238Z,99285.03
2022-09-28T07:59:05.792Z,99291.88
2022-09-28T08:01:34.060Z,99290.88
2022-09-28T08:04:02.801Z,99282.69
2022-09-28T08:06:31.928Z,99290.75
2022-09-28T08:09:01.774Z,99297.84
2022-09-28T08:11:31.463Z,99290.50
2022-09-28T08:14:00.417Z,99290.25
2022-09-28T08:16:32.465Z,99293.53
2022-09-28T08:19:00.781Z,99291.69
2022-09-28T08:21:45.893Z,99293.13
2022-09-28T08:24:15.464Z,99295.69
2022-09-28T08:26:44.090Z,99301.94
2022-09-28T08:29:12.559Z,99304.50
2022-09-28T08:31:42.101Z,99304.50
2022-09-28T08:34:10.479Z,99305.34
2022-09-28T08:36:39.433Z,99305.25
2022-09-28T08:39:07.851Z,99311.34
2022-09-28T08:41:45.915Z,99312.06
2022-09-28T08:44:23.956Z,99311.22
2022-09-28T08:46:57.568Z,99312.78
2022-09-28T08:49:31.202Z,99312.28
2022-09-28T08:52:02.459Z,99317.00
2022-09-28T08:54:41.655Z,99315.38
2022-09-28T08:57:16.586Z,99322.97
2022-09-28T08:59:51.340Z,99317.22
2022-09-28T09:02:27.217Z,99318.78
2022-09-28T09:04:57.038Z,99318.50
2022-09-28T09:07:51.152Z,99329.16
2022-09-28T09:10:50.577Z,99323.53
2022-09-28T09:13:46.425Z,99328.63
2022-09-28T09:16:30.454Z,99331.19
2022-09-28T09:19:10.924Z,99321.13
2022-09-28T09:21:43.122Z,99327.09
2022-09-28T09:24:27.494Z,99334.09
2022-09-28T09:27:07.569Z,99333.84
2022-09-28T09:29:57.984Z,99333.28
2022-09-28T09:32:57.567Z,99335.19
2022-09-28T09:35:59.855Z,99332.22
2022-09-28T09:38:58.090Z,99325.59
2022-09-28T09:41:44.495Z,99332.41
2022-09-28T09:44:39.711Z,99323.06
2022-09-28T09:47:12.756Z,99330.78
2022-09-28T09:49:44.679Z,99322.97
2022-09-28T09:52:23.475Z,99332.13
2022-09-28T09:54:56.506Z,99330.31
2022-09-28T09:57:30.228Z,99335.16
2022-09-28T10:00:01.493Z,99330.19
2022-09-28T10:02:32.919Z,99332.34
2022-09-28T10:05:07.124Z,99325.53
2022-09-28T10:07:43.656Z,99335.66
2022-09-28T10:10:19.096Z,99331.41
2022-09-28T10:12:49.507Z,99343.22
2022-09-28T10:15:24.231Z,99331.88
2022-09-28T10:17:53.067Z,99326.06
2022-09-28T10:20:22.180Z,99338.16
2022-09-28T10:22:53.178Z,99335.06
2022-09-28T10:25:21.823Z,99332.34
2022-09-28T10:27:52.610Z,99335.34
2022-09-28T10:30:24.280Z,99338.16
2022-09-28T10:32:59.024Z,99337.19
2022-09-28T10:35:30.443Z,99340.31
2022-09-28T10:38:04.868Z,99344.03
2022-09-28T10:40:43.810Z,99339.34
2022-09-28T10:43:23.601Z,99343.59
2022-09-28T10:46:02.724Z,99341.88
2022-09-28T10:48:47.070Z,99343.75
2022-09-28T10:51:15.344Z,99335.91
2022-09-28T10:54:01.405Z,99342.75
2022-09-28T10:56:37.371Z,99340.44
2022-09-28T10:59:37.922Z,99336.75
2022-09-28T11:02:21.502Z,99346.16
2022-09-28T11:04:55.822Z,99345.00
2022-09-28T11:07:27.373Z,99346.28
2022-09-28T11:09:58.480Z,99349.97
2022-09-28T11:12:31.158Z,99351.81
2022-09-28T11:15:03.445Z,99361.22
2022-09-28T11:17:38.525Z,99356.41
2022-09-28T11:20:33.365Z,99358.66
2022-09-28T11:23:18.639Z,99361.22
2022-09-28T11:25:59.763Z,99367.91
2022-09-28T11:28:33.574Z,99372.03
2022-09-28T11:31:03.437Z,99369.19
2022-09-28T11:33:34.788Z,99371.03
2022-09-28T11:36:28.710Z,99370.19
2022-09-28T11:39:08.300Z,99371.19
2022-09-28T11:42:05.305Z,99368.91
2022-09-28T11:44:44.762Z,99372.63
2022-09-28T11:47:38.861Z,99376.03
2022-09-28T11:50:24.346Z,99385.69
2022-09-28T11:53:05.159Z,99376.59
2022-09-28T11:55:40.082Z,99382.69
2022-09-28T11:58:16.295Z,99381.56
2022-09-28T12:00:51.403Z,99383.69
2022-09-28T12:03:26.313Z,99381.25
2022-09-28T12:06:01.993Z,99382.09
2022-09-28T12:08:36.844Z,99379.53
2022-09-28T12:11:11.581Z,99378.53
2022-09-28T12:13:47.686Z,99381.16
2022-09-28T12:19:20.128Z,99381.31
2022-09-28T12:21:52.215Z,99380.97
2022-09-28T12:24:26.011Z,99380.81
2022-09-28T12:27:00.073Z,99377.72
2022-09-28T12:29:37.855Z,99369.00
2022-09-28T12:32:13.996Z,99372.94
2022-09-28T12:34:43.361Z,99375.19
2022-09-28T12:37:33.326Z,99368.91
2022-09-28T12:40:26.947Z,99379.16
2022-09-28T12:43:31.196Z,99371.84
2022-09-28T12:46:25.079Z,99368.34
2022-09-28T12:50:20.215Z,99374.78
2022-09-28T12:52:22.208Z,99380.97
2022-09-28T12:55:25.925Z,99377.84
2022-09-28T12:58:02.012Z,99390.66
2022-09-28T13:00:40.023Z,99385.56
2022-09-28T13:03:45.855Z,99388.88
2022-09-28T13:06:48.152Z,99379.19
2022-09-28T13:09:27.146Z,99373.84
2022-09-28T13:12:31.957Z,99368.75
2022-09-28T13:15:32.119Z,99377.88
2022-09-28T13:18:13.689Z,99375.78
2022-09-28T13:21:00.410Z,99378.53
2022-09-28T13:23:34.540Z,99374.34
2022-09-28T13:26:13.886Z,99366.53
2022-09-28T13:28:44.228Z,99373.06
2022-09-28T13:31:14.029Z,99374.81
2022-09-28T13:33:46.787Z,99377.06
2022-09-28T13:36:37.918Z,99372.38
2022-09-28T13:39:53.030Z,99372.09
2022-09-28T13:43:04.661Z,99385.38
2022-09-28T13:45:54.705Z,99379.72
2022-09-28T13:48:29.315Z,99388.16
2022-09-28T13:51:38.102Z,99393.00
2022-09-28T13:54:32.149Z,99392.25
2022-09-28T13:57:14.511Z,99388.38
2022-09-28T13:59:58.478Z,99396.25
2022-09-28T14:02:36.540Z,99402.41
2022-09-28T14:05:07.653Z,99401.63
2022-09-28T14:08:12.863Z,99402.88
2022-09-28T14:10:51.688Z,99401.94
2022-09-28T14:14:24.781Z,99396.72
2022-09-28T14:17:20.584Z,99394.94
2022-09-28T14:19:54.276Z,99396.69
2022-09-28T14:22:30.551Z,99405.75
2022-09-28T14:25:10.031Z,99400.53
2022-09-28T14:28:02.758Z,99396.34
2022-09-28T14:30:49.544Z,99403.81
2022-09-28T14:33:26.357Z,99416.69
2022-09-28T14:35:58.316Z,99416.88
2022-09-28T14:38:49.757Z,99424.16
2022-09-28T14:41:34.622Z,99425.28
2022-09-28T14:44:09.387Z,99418.78
2022-09-28T14:46:44.758Z,99427.47
2022-09-28T14:49:47.612Z,99416.38
2022-09-28T14:52:36.908Z,99428.31
2022-09-28T14:55:12.497Z,99424.91
2022-09-28T14:57:43.406Z,99430.63
2022-09-28T15:00:21.852Z,99432.06
2022-09-28T15:02:55.114Z,99427.06
2022-09-28T15:05:28.805Z,99427.81
2022-09-28T15:07:57.274Z,99426.66
2022-09-28T15:10:32.180Z,99423.56
2022-09-28T15:13:02.389Z,99426.66
2022-09-28T15:15:36.108Z,99428.09
2022-09-28T15:18:36.532Z,99426.69
2022-09-28T15:21:05.168Z,99426.78
2022-09-28T15:23:37.554Z,99430.63
2022-09-28T15:26:08.539Z,99421.13
2022-09-28T15:28:44.225Z,99426.81
2022-09-28T15:31:20.232Z,99438.88
2022-09-28T15:34:07.183Z,99425.81
2022-09-28T15:36:39.534Z,99434.34
2022-09-28T15:39:14.924Z,99435.88
2022-09-28T15:41:46.009Z,99437.44
2022-09-28T15:44:33.656Z,99439.84
2022-09-28T15:47:14.831Z,99438.56
2022-09-28T15:49:49.383Z,99438.25
2022-09-28T15:52:40.830Z,99434.50
2022-09-28T15:55:23.657Z,99438.72
2022-09-28T15:57:51.933Z,99439.13
2022-09-28T16:00:29.772Z,99438.97
2022-09-28T16:03:17.823Z,99443.91
2022-09-28T16:05:50.104Z,99448.16
2022-09-28T16:08:24.751Z,99445.97
2022-09-28T16:11:07.911Z,99443.97
2022-09-28T16:13:36.663Z,99444.63
2022-09-28T16:16:04.991Z,99449.44
2022-09-28T16:18:35.673Z,99449.00
2022-09-28T16:21:46.383Z,99450.50
2022-09-28T16:24:24.576Z,99437.53
2022-09-28T16:26:59.770Z,99453.13
2022-09-28T16:29:39.130Z,99453.53
2022-09-28T16:32:38.397Z,99456.88
2022-09-28T16:35:30.405Z,99454.59
2022-09-28T16:38:10.688Z,99458.66
2022-09-28T16:40:46.254Z,99462.72
2022-09-28T16:43:25.252Z,99456.03
2022-09-28T16:45:56.631Z,99460.09
2022-09-28T16:48:27.918Z,99466.13
2022-09-28T16:50:56.769Z,99465.78
2022-09-28T16:53:44.358Z,99463.72
2022-09-28T16:56:13.605Z,99467.91
2022-09-28T16:58:42.519Z,99468.28
2022-09-28T17:01:13.410Z,99465.25
2022-09-28T17:03:46.593Z,99462.28
2022-09-28T17:06:16.054Z,99467.22
2022-09-28T17:08:46.120Z,99469.66
2022-09-28T17:11:20.476Z,99471.03
2022-09-28T17:13:52.162Z,99473.34
2022-09-28T17:16:37.124Z,99481.09
2022-09-28T17:19:20.926Z,99484.50
2022-09-28T17:21:50.190Z,99480.50
2022-09-28T17:24:20.378Z,99485.38
2022-09-28T17:26:51.065Z,99490.28
2022-09-28T17:29:20.191Z,99488.06
2022-09-28T17:31:49.225Z,99499.31
2022-09-28T17:34:17.820Z,99491.72
2022-09-28T17:36:46.568Z,99498.31
2022-09-28T17:39:16.878Z,99498.81
2022-09-28T17:41:46.936Z,99496.72
2022-09-28T17:44:15.844Z,99499.84
2022-09-28T17:46:49.148Z,99503.88
2022-09-28T17:49:18.683Z,99504.25
2022-09-28T17:51:47.095Z,99501.91
2022-09-28T17:54:16.916Z,99504.97
2022-09-28T17:56:46.527Z,99505.41
2022-09-28T17:59:17.984Z,99503.81
2022-09-28T18:01:48.145Z,99505.91
2022-09-28T18:04:39.740Z,99499.91
2022-09-28T18:07:06.347Z,99507.31
2022-09-28T18:09:34.516Z,99509.50
2022-09-28T18:12:06.830Z,99511.59
2022-09-28T18:14:35.791Z,99509.22
2022-09-28T18:17:04.304Z,99506.88
2022-09-28T18:19:32.744Z,99519.81
2022-09-28T18:22:01.721Z,99515.75
2022-09-28T18:24:32.387Z,99521.34
2022-09-28T18:27:00.668Z,99523.53
2022-09-28T18:29:33.256Z,99527.41
2022-09-28T18:32:02.419Z,99532.13
2022-09-28T18:34:30.594Z,99527.09
2022-09-28T18:36:58.888Z,99529.88
2022-09-28T18:39:27.287Z,99535.47
2022-09-28T18:41:55.516Z,99533.88
2022-09-28T18:44:24.159Z,99521.53
2022-09-28T18:46:54.367Z,99526.06
2022-09-28T18:49:23.525Z,99538.84
2022-09-28T18:51:52.470Z,99537.09
2022-09-28T18:54:20.677Z,99542.69
2022-09-28T18:56:50.326Z,99545.50
2022-09-28T18:59:18.635Z,99547.44
2022-09-28T19:01:46.947Z,99552.06
2022-09-28T19:04:16.866Z,99555.84
2022-09-28T19:06:47.530Z,99556.91
2022-09-28T19:09:15.711Z,99561.63
2022-09-28T19:11:43.874Z,99559.19
2022-09-28T19:14:14.982Z,99551.44
2022-09-28T19:16:43.989Z,99558.00
2022-09-28T19:19:14.442Z,99570.66
2022-09-28T19:21:44.882Z,99561.88
2022-09-28T19:24:15.560Z,99564.66
2022-09-28T19:26:45.169Z,99562.19
2022-09-28T19:29:14.297Z,99560.47
2022-09-28T19:31:44.334Z,99560.69
2022-09-28T19:34:14.247Z,99566.16
2022-09-28T19:36:44.235Z,99568.97
2022-09-28T19:39:16.260Z,99573.69
2022-09-28T19:41:49.558Z,99580.97
2022-09-28T19:44:24.613Z,99577.53
2022-09-28T19:46:55.327Z,99579.47
2022-09-28T19:49:25.412Z,99576.16
2022-09-28T19:52:14.701Z,99573.47
2022-09-28T19:54:45.024Z,99580.88
2022-09-28T19:57:15.921Z,99574.75
2022-09-28T19:59:44.437Z,99573.25
2022-09-28T20:02:14.109Z,99584.94
2022-09-28T20:04:42.338Z,99585.91
2022-09-28T20:07:11.865Z,99588.59
2022-09-28T20:09:40.092Z,99585.16
2022-09-28T20:12:08.323Z,99587.94
2022-09-28T20:14:40.101Z,99588.91
2022-09-28T20:17:09.172Z,99584.53
2022-09-28T20:19:37.338Z,99591.59
2022-09-28T20:22:05.925Z,99589.00
2022-09-28T20:24:35.447Z,99593.44
2022-09-28T20:27:03.692Z,99594.28
2022-09-28T20:29:33.216Z,99589.88
2022-09-28T20:32:03.931Z,99595.13
2022-09-28T20:34:33.500Z,99594.28
2022-09-28T20:37:02.242Z,99605.97
2022-09-28T20:39:30.462Z,99603.28
2022-09-28T20:41:59.990Z,99600.63
2022-09-28T20:44:28.226Z,99600.50
2022-09-28T20:46:56.693Z,99603.06
2022-09-28T20:49:26.274Z,99601.13
2022-09-28T20:51:54.550Z,99606.28
2022-09-28T20:54:23.033Z,99608.00
2022-09-28T20:56:51.228Z,99607.88
2022-09-28T20:59:22.838Z,99594.47
2022-09-28T21:01:51.279Z,99600.69
2022-09-28T21:04:19.728Z,99606.06
2022-09-28T21:06:47.992Z,99601.47
2022-09-28T21:09:16.467Z,99606.72
2022-09-28T21:11:44.618Z,99604.81
2022-09-28T21:14:12.857Z,99607.25
2022-09-28T21:16:42.392Z,99611.53
2022-09-28T21:19:10.580Z,99608.75
2022-09-28T21:21:39.212Z,99615.84
2022-09-28T21:24:08.240Z,99614.97
2022-09-28T21:26:36.456Z,99609.53
2022-09-28T21:29:07.685Z,99615.84
2022-09-28T21:31:41.224Z,99616.72
2022-09-28T21:34:14.346Z,99609.41
2022-09-28T21:36:43.328Z,99615.66
2022-09-28T21:39:11.728Z,99615.53
2022-09-28T21:41:39.933Z,99618.09
2022-09-28T21:44:09.222Z,99619.81
2022-09-28T21:46:38.789Z,99620.69
2022-09-28T21:49:08.648Z,99623.47
2022-09-28T21:51:38.506Z,99621.75
2022-09-28T21:54:06.900Z,99625.41
2022-09-28T21:56:35.076Z,99616.72
2022-09-28T21:59:03.298Z,99618.63
2022-09-28T22:01:31.769Z,99620.66
2022-09-28T22:04:00.165Z,99614.66
2022-09-28T22:06:29.087Z,99621.97
2022-09-28T22:08:59.187Z,99618.44
2022-09-28T22:11:30.124Z,99618.50
2022-09-28T22:14:01.041Z,99625.81
2022-09-28T22:16:31.816Z,99622.25
2022-09-28T22:19:00.740Z,99631.28
2022-09-28T22:21:31.815Z,99626.78
2022-09-28T22:24:03.797Z,99628.81
2022-09-28T22:26:34.363Z,99624.53
2022-09-28T22:29:05.901Z,99618.50
2022-09-28T22:31:36.425Z,99628.56
2022-09-28T22:34:05.499Z,99631.38
2022-09-28T22:36:33.933Z,99632.44
2022-09-28T22:39:04.087Z,99629.88
2022-09-28T22:41:32.258Z,99631.88
2022-09-28T22:44:00.869Z,99642.69
2022-09-28T22:46:31.772Z,99640.97
2022-09-28T22:49:00.946Z,99645.69
2022-09-28T22:51:31.240Z,99636.06
2022-09-28T22:53:59.988Z,99636.16
2022-09-28T22:56:29.892Z,99634.53
2022-09-28T22:58:58.406Z,99641.69
2022-09-28T23:01:29.330Z,99635.59
2022-09-28T23:03:58.725Z,99650.81
2022-09-28T23:06:30.735Z,99644.59
2022-09-28T23:08:58.939Z,99645.66
2022-09-28T23:11:27.572Z,99652.00
2022-09-28T23:13:59.010Z,99649.31
2022-09-28T23:16:28.226Z,99652.09
2022-09-28T23:18:57.134Z,99649.53
2022-09-28T23:21:29.226Z,99651.34
2022-09-28T23:24:01.033Z,99641.59
2022-09-28T23:26:32.038Z,99645.13
2022-09-28T23:29:01.903Z,99647.81
2022-09-28T23:31:32.596Z,99647.81
2022-09-28T23:34:02.757Z,99640.63
2022-09-28T23:36:31.809Z,99645.97
2022-09-28T23:39:00.873Z,99641.59
2022-09-28T23:41:29.349Z,99647.69
2022-09-28T23:43:57.561Z,99644.06
2022-09-28T23:46:27.243Z,99652.00
2022-09-28T23:48:55.608Z,99649.19
2022-09-28T23:51:23.907Z,99641.91
2022-09-28T23:53:52.119Z,99648.03
2022-09-28T23:56:20.341Z,99648.88
2022-09-28T23:58:48.509Z,99644.38
